^^
B2 Weather Station Historical Data
Daily Summary for December 21, 2018 Units:  English    Metric   Both
Daily Weekly Monthly Yearly Custom
  High: Low: Average:
Temperature: 38.9 °F 30.8 °F 34 °F
Dew Point: 37.6 °F 26.8 °F 31.4 °F
Humidity: 95% 84% 90%
Wind Speed: 18.4mph 2.3mph 10.8mph
Wind Gust: 13.3mph - -
Wind- - NNW
Pressure: 29.85 in 29.56 in -
Precipitation: 0.03 in    
Historical Graphs
 
 
Tabular Data for December 21, 2018
Time Temperature Dew Point Pressure Wind Wind Speed Wind Gust Humidity Rainfall Rate (Hourly) solar
00:04 38.9 °F 37.6 °F 29.57 in North 12.7 mph 9.9 mph 95% 0 in 0.00 W/m2
00:09 38.9 °F 37.6 °F 29.57 in NNW 10.4 mph 7.5 mph 95% 0 in 0.00 W/m2
00:14 38.9 °F 37.6 °F 29.57 in North 11.5 mph 6.9 mph 95% 0 in 0.00 W/m2
00:19 38.8 °F 37.5 °F 29.56 in NNW 10.4 mph 7.4 mph 95% 0 in 0.00 W/m2
00:24 38.8 °F 37.5 °F 29.56 in NNW 12 mph 7.7 mph 95% 0 in 0.00 W/m2
00:29 38.8 °F 37.5 °F 29.56 in NNW 11.5 mph 8.6 mph 95% 0 in 0.00 W/m2
00:34 38.8 °F 37.5 °F 29.56 in NNW 11 mph 10.3 mph 95% 0 in 0.00 W/m2
00:39 38.8 °F 37.5 °F 29.57 in NNW 9.2 mph 9.3 mph 95% 0 in 0.00 W/m2
00:44 38.7 °F 37.4 °F 29.57 in NNW 11.5 mph 7.4 mph 95% 0 in 0.00 W/m2
00:49 38.8 °F 37.5 °F 29.57 in North 10.4 mph 7.8 mph 95% 0 in 0.00 W/m2
00:54 38.8 °F 37.5 °F 29.57 in North 10.4 mph 7.6 mph 95% 0 in 0.00 W/m2
00:59 38.8 °F 37.5 °F 29.56 in NNW 8.1 mph 7.3 mph 95% 0 in 0.00 W/m2
01:04 38.7 °F 37.4 °F 29.56 in North 11.5 mph 7.2 mph 95% 0 in 0.00 W/m2
01:09 38.7 °F 37.4 °F 29.57 in NNW 10 mph 7 mph 95% 0 in 0.00 W/m2
01:14 38.7 °F 37.4 °F 29.57 in NNW 11.5 mph 8 mph 95% 0 in 0.00 W/m2
01:19 38.7 °F 37.4 °F 29.57 in NNW 11.5 mph 8.6 mph 95% 0 in 0.00 W/m2
01:24 38.6 °F 37.3 °F 29.57 in NNW 8.1 mph 4.8 mph 95% 0 in 0.00 W/m2
01:29 38.7 °F 37.4 °F 29.57 in North 9.2 mph 6.2 mph 95% 0 in 0.00 W/m2
01:34 38.7 °F 37.4 °F 29.57 in NNW 11.5 mph 7.3 mph 95% 0 in 0.00 W/m2
01:39 38.7 °F 37.4 °F 29.57 in NNW 9.2 mph 6.3 mph 95% 0 in 0.00 W/m2
01:44 38.7 °F 37.4 °F 29.57 in NNW 12.7 mph 8.1 mph 95% 0 in 0.00 W/m2
01:49 38.7 °F 37.4 °F 29.57 in North 10.4 mph 5.7 mph 95% 0 in 0.00 W/m2
01:54 38.6 °F 37.3 °F 29.57 in NNW 9.2 mph 5.5 mph 95% 0 in 0.00 W/m2
01:59 38.6 °F 37.3 °F 29.57 in NNW 10.4 mph 6.8 mph 95% 0 in 0.00 W/m2
02:04 38.5 °F 37.2 °F 29.57 in NNW 11.5 mph 9.3 mph 95% 0 in 0.00 W/m2
02:09 38.6 °F 37.3 °F 29.57 in NNW 11.5 mph 8.6 mph 95% 0.01 in 0.00 W/m2
02:14 38.6 °F 37.3 °F 29.57 in NNW 11.5 mph 7.9 mph 95% 0.01 in 0.00 W/m2
02:20 38.6 °F 37.3 °F 29.57 in North 11.5 mph 7.7 mph 95% 0.01 in 0.00 W/m2
02:24 38.6 °F 37.3 °F 29.57 in NNW 11.5 mph 6 mph 95% 0.01 in 0.00 W/m2
02:29 38.6 °F 37.3 °F 29.57 in NNW 11.5 mph 7.3 mph 95% 0.01 in 0.00 W/m2
02:34 38.6 °F 37.3 °F 29.57 in NNW 11.5 mph 7.2 mph 95% 0.01 in 0.00 W/m2
02:39 38.6 °F 37.3 °F 29.57 in North 10.4 mph 8.2 mph 95% 0.01 in 0.00 W/m2
02:44 38.6 °F 37.3 °F 29.57 in NNW 11.5 mph 7.2 mph 95% 0.01 in 0.00 W/m2
02:50 38.6 °F 37.3 °F 29.57 in NNW 11.5 mph 8.1 mph 95% 0.01 in 0.00 W/m2
02:54 38.7 °F 37.4 °F 29.57 in NNW 11.5 mph 7.4 mph 95% 0.01 in 0.00 W/m2
02:59 38.7 °F 37.1 °F 29.57 in North 10 mph 9 mph 94% 0.01 in 0.00 W/m2
03:04 38.6 °F 37 °F 29.57 in NNW 11.5 mph 12.7 mph 94% 0.01 in 0.00 W/m2
03:09 38.5 °F 36.9 °F 29.57 in NNW 17.3 mph 11.3 mph 94% 0 in 0.00 W/m2
03:14 38.5 °F 36.9 °F 29.57 in NNW 16.1 mph 11.1 mph 94% 0 in 0.00 W/m2
03:19 38.4 °F 36.8 °F 29.57 in NNW 11.5 mph 11 mph 94% 0 in 0.00 W/m2
03:24 38.4 °F 36.8 °F 29.57 in NNW 15 mph 9.1 mph 94% 0 in 0.00 W/m2
03:29 38.3 °F 36.7 °F 29.57 in NNW 13.8 mph 9.1 mph 94% 0 in 0.00 W/m2
03:34 38.2 °F 36.6 °F 29.57 in North 15 mph 13.3 mph 94% 0 in 0.00 W/m2
03:39 38.1 °F 36.5 °F 29.57 in North 11.5 mph 9.2 mph 94% 0 in 0.00 W/m2
03:44 38 °F 36.4 °F 29.57 in NNW 13.8 mph 8.7 mph 94% 0.01 in 0.00 W/m2
03:49 37.8 °F 36.2 °F 29.57 in NNW 13.8 mph 10 mph 94% 0.01 in 0.00 W/m2
03:54 37.6 °F 36 °F 29.58 in NNW 17 mph 12.7 mph 94% 0.01 in 0.00 W/m2
03:59 37.5 °F 35.9 °F 29.58 in NNW 16.1 mph 10.6 mph 94% 0.01 in 0.00 W/m2
04:04 37.3 °F 35.7 °F 29.58 in NNE 16.1 mph 10.9 mph 94% 0.01 in 0.00 W/m2
04:09 37.2 °F 35.4 °F 29.58 in NNW 12.7 mph 9.7 mph 93% 0.01 in 0.00 W/m2
04:14 37.1 °F 35.5 °F 29.58 in NW 15 mph 10.5 mph 94% 0.01 in 0.00 W/m2
04:19 37 °F 35.4 °F 29.58 in North 13.8 mph 9.6 mph 94% 0.01 in 0.00 W/m2
04:24 37 °F 35.4 °F 29.58 in North 11.5 mph 10.1 mph 94% 0.01 in 0.00 W/m2
04:29 36.8 °F 35 °F 29.59 in NNW 16.1 mph 10 mph 93% 0.01 in 0.00 W/m2
04:34 36.6 °F 35 °F 29.58 in NNW 16.1 mph 12.4 mph 94% 0.01 in 0.00 W/m2
04:39 36.4 °F 34.6 °F 29.58 in NNW 13.8 mph 10.1 mph 93% 0.01 in 0.00 W/m2
04:44 36.3 °F 34.5 °F 29.59 in NNW 11.5 mph 9.7 mph 93% 0 in 0.00 W/m2
04:49 36.2 °F 34.6 °F 29.59 in North 13.8 mph 8.1 mph 94% 0 in 0.00 W/m2
04:54 36.1 °F 34.5 °F 29.59 in NNW 11.5 mph 9.4 mph 94% 0 in 0.00 W/m2
04:59 36.1 °F 34.5 °F 29.59 in North 12.7 mph 8.2 mph 94% 0 in 0.00 W/m2
05:04 36 °F 34.4 °F 29.59 in North 11.5 mph 9.8 mph 94% 0 in 0.00 W/m2
05:09 36 °F 34.4 °F 29.60 in NNW 14 mph 10.8 mph 94% 0 in 0.00 W/m2
05:14 35.9 °F 34.1 °F 29.60 in North 16.1 mph 10.6 mph 93% 0 in 0.00 W/m2
05:19 35.9 °F 34.1 °F 29.60 in NNW 12.7 mph 9 mph 93% 0 in 0.00 W/m2
05:24 35.8 °F 34 °F 29.60 in NNW 13.8 mph 9 mph 93% 0 in 0.00 W/m2
05:29 35.8 °F 34 °F 29.60 in NNW 11.5 mph 10.4 mph 93% 0 in 0.00 W/m2
05:35 35.7 °F 33.9 °F 29.60 in NNW 11.5 mph 9.4 mph 93% 0 in 0.00 W/m2
05:39 35.6 °F 33.8 °F 29.60 in NNW 11.5 mph 8.7 mph 93% 0 in 0.00 W/m2
05:44 35.6 °F 34 °F 29.60 in NNW 15 mph 9.5 mph 94% 0 in 0.00 W/m2
05:49 35.5 °F 33.9 °F 29.60 in North 12.7 mph 10.6 mph 94% 0 in 0.00 W/m2
05:54 35.5 °F 33.7 °F 29.61 in North 12.7 mph 8.3 mph 93% 0 in 0.00 W/m2
05:59 35.4 °F 33.8 °F 29.61 in NNW 11.5 mph 7.4 mph 94% 0 in 0.00 W/m2
06:04 35.3 °F 33.7 °F 29.61 in North 13.8 mph 7.9 mph 94% 0 in 0.00 W/m2
06:09 35.2 °F 33.4 °F 29.61 in North 11.5 mph 9 mph 93% 0 in 0.00 W/m2
06:14 35.2 °F 33.4 °F 29.60 in North 11.5 mph 7 mph 93% 0 in 0.00 W/m2
06:19 35.1 °F 33.5 °F 29.60 in NNW 15 mph 9.6 mph 94% 0 in 0.00 W/m2
06:24 34.8 °F 33 °F 29.61 in NNW 12.7 mph 11.2 mph 93% 0 in 0.00 W/m2
06:29 34.6 °F 32.8 °F 29.61 in North 16.1 mph 10.4 mph 93% 0 in 0.00 W/m2
06:34 34.4 °F 32.6 °F 29.61 in NNW 15 mph 10.9 mph 93% 0 in 0.00 W/m2
06:39 34.4 °F 32.6 °F 29.61 in NNW 12.7 mph 11.2 mph 93% 0 in 0.00 W/m2
06:44 34.3 °F 32.5 °F 29.61 in NNW 16.1 mph 11.2 mph 93% 0 in 0.00 W/m2
06:49 34.2 °F 32.4 °F 29.61 in NNW 15 mph 9.5 mph 93% 0 in 0.00 W/m2
06:54 34.1 °F 32.3 °F 29.62 in NNW 13.8 mph 10.2 mph 93% 0 in 0.00 W/m2
06:59 34 °F 32.2 °F 29.62 in NNW 12.7 mph 9 mph 93% 0 in 0.00 W/m2
07:04 33.9 °F 32.1 °F 29.62 in North 13.8 mph 9.5 mph 93% 0 in 0.00 W/m2
07:09 33.8 °F 32 °F 29.62 in NNW 11.5 mph 8.8 mph 93% 0 in 0.00 W/m2
07:15 33.8 °F 32 °F 29.62 in North 12.7 mph 9.5 mph 93% 0 in 0.00 W/m2
07:19 33.8 °F 32 °F 29.63 in NNW 11.5 mph 8.2 mph 93% 0 in 0.00 W/m2
07:24 33.8 °F 32 °F 29.63 in NNW 11.5 mph 8.8 mph 93% 0 in 0.00 W/m2
07:29 33.8 °F 32.3 °F 29.63 in NW 10.4 mph 8.6 mph 94% 0 in 0.00 W/m2
07:34 33.8 °F 32.3 °F 29.63 in North 8.1 mph 6.5 mph 94% 0 in 0.00 W/m2
07:39 33.8 °F 32.3 °F 29.63 in NNW 5 mph 5.8 mph 94% 0 in 5.00 W/m2
07:44 33.9 °F 32.4 °F 29.64 in NNW 8.1 mph 5.4 mph 94% 0 in 5.00 W/m2
07:49 33.9 °F 32.4 °F 29.64 in NNW 8.1 mph 5.4 mph 94% 0 in 7.00 W/m2
07:54 33.9 °F 32.4 °F 29.64 in NNW 8.1 mph 5.1 mph 94% 0 in 7.00 W/m2
07:59 33.9 °F 32.4 °F 29.64 in NNW 10.4 mph 6 mph 94% 0 in 7.00 W/m2
08:04 33.9 °F 32.4 °F 29.64 in NNW 15 mph 7.6 mph 94% 0 in 9.00 W/m2
08:09 33.8 °F 32 °F 29.64 in NNW 12.7 mph 8.3 mph 93% 0 in 9.00 W/m2
08:15 33.8 °F 32 °F 29.64 in NNW 11.5 mph 7.7 mph 93% 0 in 12.00 W/m2
08:19 33.7 °F 31.9 °F 29.64 in NNW 13.8 mph 8.8 mph 93% 0 in 19.00 W/m2
08:24 33.7 °F 31.9 °F 29.64 in NNW 11.5 mph 8.8 mph 93% 0 in 26.00 W/m2
08:29 33.8 °F 32 °F 29.64 in NNW 12.7 mph 6.5 mph 93% 0.01 in 33.00 W/m2
08:34 33.8 °F 32 °F 29.64 in NNW 13 mph 6.8 mph 93% 0.01 in 39.00 W/m2
08:39 33.9 °F 32.1 °F 29.64 in NNW 14 mph 9.1 mph 93% 0.01 in 33.00 W/m2
08:44 33.9 °F 32.1 °F 29.64 in North 13.8 mph 9.3 mph 93% 0.01 in 32.00 W/m2
08:49 33.8 °F 32 °F 29.64 in NW 15 mph 10 mph 93% 0.01 in 28.00 W/m2
08:54 33.9 °F 32.1 °F 29.64 in NNW 16.1 mph 9.9 mph 93% 0.01 in 26.00 W/m2
08:59 33.9 °F 32.1 °F 29.64 in NNW 12.7 mph 11.1 mph 93% 0.01 in 26.00 W/m2
09:04 33.8 °F 32 °F 29.65 in NNW 13.8 mph 11.1 mph 93% 0.01 in 23.00 W/m2
09:10 33.9 °F 32.1 °F 29.65 in NNW 15 mph 8.6 mph 93% 0.01 in 25.00 W/m2
09:14 33.9 °F 31.8 °F 29.65 in NNW 14 mph 10.1 mph 92% 0.01 in 25.00 W/m2
09:19 33.9 °F 31.8 °F 29.65 in NNW 15 mph 9.7 mph 92% 0.01 in 25.00 W/m2
09:24 33.9 °F 31.8 °F 29.66 in NNW 13 mph 12.3 mph 92% 0.01 in 26.00 W/m2
09:29 33.9 °F 31.8 °F 29.65 in NNW 14 mph 8.8 mph 92% 0 in 33.00 W/m2
09:34 33.9 °F 31.8 °F 29.66 in North 16.1 mph 9.5 mph 92% 0 in 30.00 W/m2
09:40 34 °F 31.9 °F 29.66 in North 17.3 mph 8.8 mph 92% 0 in 32.00 W/m2
09:45 34 °F 31.9 °F 29.66 in North 12.7 mph 10.1 mph 92% 0 in 33.00 W/m2
09:49 34 °F 31.6 °F 29.66 in NNW 13 mph 10 mph 91% 0 in 33.00 W/m2
09:54 34 °F 31.6 °F 29.66 in NNW 14 mph 10.4 mph 91% 0 in 44.00 W/m2
09:59 34.1 °F 31.7 °F 29.66 in NNW 12.7 mph 9.5 mph 91% 0 in 39.00 W/m2
10:04 34.1 °F 31.7 °F 29.66 in North 10.4 mph 7.8 mph 91% 0 in 40.00 W/m2
10:09 34.1 °F 31.7 °F 29.66 in North 12.7 mph 9.2 mph 91% 0 in 33.00 W/m2
10:14 34.1 °F 31.7 °F 29.66 in NNW 10 mph 7.1 mph 91% 0 in 32.00 W/m2
10:19 34.1 °F 31.7 °F 29.66 in North 12.7 mph 7.1 mph 91% 0 in 35.00 W/m2
10:24 34.1 °F 32 °F 29.66 in North 12 mph 7.8 mph 92% 0 in 33.00 W/m2
10:29 34.1 °F 31.7 °F 29.66 in NNW 11.5 mph 8.4 mph 91% 0 in 30.00 W/m2
10:34 34.1 °F 31.7 °F 29.66 in NNW 13.8 mph 9.4 mph 91% 0 in 32.00 W/m2
10:40 34.1 °F 32 °F 29.66 in North 8.1 mph 5.9 mph 92% 0 in 32.00 W/m2
10:44 34 °F 31.6 °F 29.66 in NNW 12.7 mph 7.5 mph 91% 0 in 32.00 W/m2
10:49 33.9 °F 31.6 °F 29.66 in NNW 11.5 mph 8.5 mph 91% 0 in 35.00 W/m2
10:54 33.8 °F 31.5 °F 29.65 in NNW 15 mph 8.4 mph 91% 0 in 35.00 W/m2
10:59 33.9 °F 31.6 °F 29.65 in NNW 11.5 mph 6.1 mph 91% 0 in 39.00 W/m2
11:04 33.9 °F 31.6 °F 29.65 in NNW 10.4 mph 9.8 mph 91% 0 in 35.00 W/m2
11:10 33.8 °F 31.5 °F 29.65 in NNW 13.8 mph 11.3 mph 91% 0 in 40.00 W/m2
11:14 33.8 °F 31.5 °F 29.65 in NNW 12.7 mph 7.8 mph 91% 0 in 46.00 W/m2
11:19 33.9 °F 31.6 °F 29.65 in NNW 9.2 mph 6.7 mph 91% 0 in 39.00 W/m2
11:24 33.8 °F 31.5 °F 29.65 in North 10.4 mph 7.7 mph 91% 0 in 40.00 W/m2
11:29 33.7 °F 31.4 °F 29.65 in NNW 13.8 mph 9.4 mph 91% 0 in 47.00 W/m2
11:34 33.7 °F 31.1 °F 29.65 in NNW 12.7 mph 8 mph 90% 0 in 44.00 W/m2
11:39 33.7 °F 31.4 °F 29.64 in NNW 12 mph 7.8 mph 91% 0 in 46.00 W/m2
11:44 33.7 °F 31.1 °F 29.64 in NW 10.4 mph 7 mph 90% 0 in 51.00 W/m2
11:49 33.7 °F 31.1 °F 29.64 in NNW 13.8 mph 7.6 mph 90% 0 in 51.00 W/m2
11:54 33.7 °F 31.1 °F 29.65 in NNW 18.4 mph 9.6 mph 90% 0 in 49.00 W/m2
11:59 33.7 °F 31.1 °F 29.64 in NNW 16.1 mph 10 mph 90% 0 in 58.00 W/m2
12:04 33.8 °F 31.2 °F 29.65 in NNW 13.8 mph 8.8 mph 90% 0 in 47.00 W/m2
12:09 33.8 °F 31.2 °F 29.65 in NNW 14 mph 8.5 mph 90% 0 in 42.00 W/m2
12:14 33.7 °F 31.1 °F 29.65 in NNW 11.5 mph 7.9 mph 90% 0 in 49.00 W/m2
12:19 33.7 °F 31.1 °F 29.65 in NNW 10.4 mph 5.4 mph 90% 0 in 56.00 W/m2
12:24 33.6 °F 30.7 °F 29.65 in NNW 12.7 mph 9.7 mph 89% 0 in 58.00 W/m2
12:29 33.6 °F 30.7 °F 29.64 in NNW 16.1 mph 9.4 mph 89% 0 in 62.00 W/m2
12:34 33.6 °F 30.7 °F 29.65 in NNW 13 mph 13 mph 89% 0 in 54.00 W/m2
12:39 33.5 °F 30.6 °F 29.65 in North 13 mph 9.4 mph 89% 0 in 49.00 W/m2
12:44 33.4 °F 30.5 °F 29.65 in North 13 mph 8.9 mph 89% 0 in 51.00 W/m2
12:49 33.4 °F 30.5 °F 29.65 in NNW 11.5 mph 7 mph 89% 0 in 44.00 W/m2
12:54 33.4 °F 30.5 °F 29.65 in NNW 11.5 mph 7.1 mph 89% 0 in 46.00 W/m2
12:59 33.4 °F 30.5 °F 29.65 in NW 8.1 mph 6.4 mph 89% 0 in 40.00 W/m2
13:04 33.3 °F 30.4 °F 29.65 in NW 11.5 mph 7 mph 89% 0 in 44.00 W/m2
13:09 33.2 °F 30.3 °F 29.65 in NNW 13 mph 8 mph 89% 0 in 56.00 W/m2
13:14 33.2 °F 30.3 °F 29.65 in NNW 9.2 mph 6.3 mph 89% 0 in 54.00 W/m2
13:19 33.1 °F 29.9 °F 29.66 in NNW 16.1 mph 10.7 mph 88% 0 in 54.00 W/m2
13:24 33.2 °F 30 °F 29.66 in NNW 12 mph 8.5 mph 88% 0 in 56.00 W/m2
13:29 33.1 °F 29.9 °F 29.66 in NNW 13.8 mph 10.6 mph 88% 0 in 62.00 W/m2
13:34 33 °F 29.8 °F 29.66 in NNW 16.1 mph 11.3 mph 88% 0 in 49.00 W/m2
13:39 33 °F 29.8 °F 29.67 in NNW 13.8 mph 9.5 mph 88% 0 in 39.00 W/m2
13:44 33 °F 29.8 °F 29.67 in NNW 10.4 mph 8.2 mph 88% 0 in 37.00 W/m2
13:49 33.1 °F 29.9 °F 29.66 in NNW 8.1 mph 7.2 mph 88% 0 in 35.00 W/m2
13:54 33.2 °F 30.3 °F 29.67 in NNW 10.4 mph 4.8 mph 89% 0 in 28.00 W/m2
13:59 33.1 °F 29.9 °F 29.67 in NW 15 mph 10.4 mph 88% 0 in 35.00 W/m2
14:04 33.1 °F 29.9 °F 29.67 in NNW 12.7 mph 7.1 mph 88% 0 in 32.00 W/m2
14:09 33.2 °F 30 °F 29.67 in NNW 10.4 mph 7.2 mph 88% 0 in 35.00 W/m2
14:14 33.1 °F 29.9 °F 29.67 in NNW 12.7 mph 7.2 mph 88% 0 in 28.00 W/m2
14:19 33.1 °F 29.9 °F 29.68 in NNW 10 mph 9.3 mph 88% 0 in 25.00 W/m2
14:24 33.1 °F 29.9 °F 29.68 in NNW 10.4 mph 6.5 mph 88% 0 in 26.00 W/m2
14:29 33 °F 29.8 °F 29.68 in NNW 10.4 mph 7.5 mph 88% 0 in 28.00 W/m2
14:34 32.9 °F 29.5 °F 29.68 in NW 10.4 mph 7.8 mph 87% 0 in 26.00 W/m2
14:39 32.8 °F 29.4 °F 29.68 in NNW 12 mph 8.5 mph 87% 0 in 25.00 W/m2
14:44 32.8 °F 29.4 °F 29.69 in NNW 12 mph 9.3 mph 87% 0 in 23.00 W/m2
14:49 32.8 °F 29.6 °F 29.69 in NNW 9.2 mph 5.6 mph 88% 0 in 23.00 W/m2
14:54 32.8 °F 29.6 °F 29.69 in NNW 9.2 mph 2.8 mph 88% 0 in 19.00 W/m2
14:59 32.8 °F 29.6 °F 29.69 in NNW 9.2 mph 6.7 mph 88% 0 in 14.00 W/m2
15:04 32.7 °F 29.5 °F 29.70 in North 11.5 mph 8 mph 88% 0 in 14.00 W/m2
15:09 32.6 °F 29.4 °F 29.70 in NNW 13.8 mph 6.4 mph 88% 0 in 14.00 W/m2
15:14 32.6 °F 29.4 °F 29.70 in NW 11.5 mph 6.8 mph 88% 0 in 16.00 W/m2
15:19 32.5 °F 29.1 °F 29.70 in NW 10.4 mph 4.9 mph 87% 0 in 16.00 W/m2
15:24 32.5 °F 29.1 °F 29.70 in North 10.4 mph 6.7 mph 87% 0 in 12.00 W/m2
15:29 32.5 °F 29.1 °F 29.71 in NNW 8 mph 6.7 mph 87% 0 in 11.00 W/m2
15:34 32.5 °F 29.1 °F 29.71 in NW 11.5 mph 5.1 mph 87% 0 in 9.00 W/m2
15:39 32.5 °F 29.1 °F 29.71 in WNW 8.1 mph 5.8 mph 87% 0 in 7.00 W/m2
15:44 32.5 °F 29.3 °F 29.72 in NW 9.2 mph 4.9 mph 88% 0 in 5.00 W/m2
15:49 32.5 °F 29.3 °F 29.71 in WNW 11.5 mph 7.4 mph 88% 0 in 5.00 W/m2
15:54 32.4 °F 29.2 °F 29.72 in WNW 9.2 mph 5.5 mph 88% 0 in 0.00 W/m2
15:59 32.4 °F 29.2 °F 29.73 in NNW 12.7 mph 8.5 mph 88% 0 in 0.00 W/m2
16:04 32.3 °F 29.1 °F 29.73 in NW 10.4 mph 9.7 mph 88% 0 in 0.00 W/m2
16:09 32.2 °F 28.8 °F 29.73 in NW 10.4 mph 3.9 mph 87% 0 in 0.00 W/m2
16:14 32.1 °F 28.9 °F 29.73 in NNW 9.2 mph 7 mph 88% 0 in 0.00 W/m2
16:19 32.1 °F 28.9 °F 29.72 in NNW 9.2 mph 3.7 mph 88% 0 in 0.00 W/m2
16:24 32.1 °F 28.9 °F 29.72 in NW 11.5 mph 6.2 mph 88% 0 in 0.00 W/m2
16:29 32.1 °F 28.9 °F 29.73 in NW 6.9 mph 3.5 mph 88% 0 in 0.00 W/m2
16:34 32 °F 28.8 °F 29.73 in NNW 7 mph 2.9 mph 88% 0 in 0.00 W/m2
16:39 32.1 °F 28.9 °F 29.73 in NNW 10.4 mph 5.4 mph 88% 0 in 0.00 W/m2
16:44 32.1 °F 28.9 °F 29.73 in NNW 9.2 mph 4.2 mph 88% 0 in 0.00 W/m2
16:49 32.1 °F 28.7 °F 29.73 in NNW 5.8 mph 4.6 mph 87% 0 in 0.00 W/m2
16:54 32.1 °F 28.7 °F 29.73 in NNW 4.6 mph 3.2 mph 87% 0 in 0.00 W/m2
16:59 32.2 °F 28.8 °F 29.74 in NW 6.9 mph 2.7 mph 87% 0 in 0.00 W/m2
17:04 32.2 °F 28.8 °F 29.74 in NW 4.6 mph 2.6 mph 87% 0 in 0.00 W/m2
17:09 32.2 °F 28.8 °F 29.74 in NW 6.9 mph 4.7 mph 87% 0 in 0.00 W/m2
17:14 32.3 °F 29.1 °F 29.74 in NW 6.9 mph 4.5 mph 88% 0 in 0.00 W/m2
17:19 32.3 °F 29.1 °F 29.75 in NNW 5.8 mph 4.2 mph 88% 0 in 0.00 W/m2
17:24 32.3 °F 29.1 °F 29.75 in WNW 8.1 mph 4.2 mph 88% 0 in 0.00 W/m2
17:29 32.3 °F 29.1 °F 29.75 in WNW 8.1 mph 2.9 mph 88% 0 in 0.00 W/m2
17:34 32.3 °F 28.9 °F 29.75 in NNW 10.4 mph 4.5 mph 87% 0 in 0.00 W/m2
17:39 32.3 °F 28.9 °F 29.75 in NNW 6.9 mph 3.2 mph 87% 0 in 0.00 W/m2
17:44 32.3 °F 28.9 °F 29.75 in NW 4 mph 4.4 mph 87% 0 in 0.00 W/m2
17:49 32.3 °F 28.9 °F 29.76 in NNW 8.1 mph 3.4 mph 87% 0 in 0.00 W/m2
17:54 32.3 °F 29.1 °F 29.76 in NW 8.1 mph 4.8 mph 88% 0 in 0.00 W/m2
17:59 32.3 °F 29.1 °F 29.76 in West 5 mph 4.5 mph 88% 0 in 0.00 W/m2
18:04 32.3 °F 29.1 °F 29.76 in North 6.9 mph 4.4 mph 88% 0 in 0.00 W/m2
18:09 32.3 °F 29.1 °F 29.77 in NW 6.9 mph 4.8 mph 88% 0 in 0.00 W/m2
18:14 32.3 °F 29.1 °F 29.77 in NW 5.8 mph 3.6 mph 88% 0 in 0.00 W/m2
18:19 32.3 °F 28.9 °F 29.77 in NW 6.9 mph 4.8 mph 87% 0 in 0.00 W/m2
18:24 32.2 °F 28.8 °F 29.78 in WNW 10.4 mph 6.6 mph 87% 0 in 0.00 W/m2
18:29 32.3 °F 28.9 °F 29.78 in NW 6.9 mph 5.7 mph 87% 0 in 0.00 W/m2
18:34 32.3 °F 28.9 °F 29.78 in North 6 mph 3.2 mph 87% 0 in 0.00 W/m2
18:39 32.3 °F 28.9 °F 29.78 in NW 7 mph 4.2 mph 87% 0 in 0.00 W/m2
18:44 32.2 °F 28.8 °F 29.78 in NNW 6.9 mph 4.4 mph 87% 0 in 0.00 W/m2
18:49 32.2 °F 28.8 °F 29.79 in NW 11.5 mph 5.2 mph 87% 0 in 0.00 W/m2
18:54 32.2 °F 28.8 °F 29.79 in NW 8.1 mph 6 mph 87% 0 in 0.00 W/m2
18:59 32.2 °F 28.8 °F 29.79 in NW 5.8 mph 4.4 mph 87% 0 in 0.00 W/m2
19:04 32.2 °F 28.5 °F 29.79 in North 9.2 mph 7.1 mph 86% 0 in 0.00 W/m2
19:09 32.1 °F 28.4 °F 29.79 in WNW 11.5 mph 5.7 mph 86% 0 in 0.00 W/m2
19:14 32.1 °F 28.4 °F 29.79 in WNW 11.5 mph 6.1 mph 86% 0 in 0.00 W/m2
19:19 32 °F 28.3 °F 29.79 in NW 9.2 mph 5.8 mph 86% 0 in 0.00 W/m2
19:24 32 °F 28.3 °F 29.79 in NW 8.1 mph 8 mph 86% 0 in 0.00 W/m2
19:29 31.9 °F 28.2 °F 29.79 in WNW 10.4 mph 6.4 mph 86% 0 in 0.00 W/m2
19:34 31.8 °F 28.1 °F 29.79 in WNW 9.2 mph 6.4 mph 86% 0 in 0.00 W/m2
19:39 31.7 °F 28 °F 29.80 in NW 10.4 mph 4.5 mph 86% 0 in 0.00 W/m2
19:44 31.7 °F 28 °F 29.80 in NW 9 mph 6.4 mph 86% 0 in 0.00 W/m2
19:49 31.7 °F 27.7 °F 29.80 in NW 15 mph 6.4 mph 85% 0 in 0.00 W/m2
19:54 31.7 °F 27.7 °F 29.80 in NNW 8.1 mph 7 mph 85% 0 in 0.00 W/m2
19:59 31.6 °F 27.6 °F 29.80 in NW 11.5 mph 6.7 mph 85% 0 in 0.00 W/m2
20:04 31.6 °F 27.6 °F 29.80 in WNW 15 mph 6.7 mph 85% 0 in 0.00 W/m2
20:09 31.5 °F 27.5 °F 29.80 in North 11.5 mph 6.5 mph 85% 0 in 0.00 W/m2
20:14 31.5 °F 27.2 °F 29.80 in West 9.2 mph 6.1 mph 84% 0 in 0.00 W/m2
20:19 31.4 °F 27.1 °F 29.80 in WNW 11.5 mph 4.8 mph 84% 0 in 0.00 W/m2
20:24 31.4 °F 27.1 °F 29.80 in NW 10.4 mph 5.8 mph 84% 0 in 0.00 W/m2
20:29 31.4 °F 27.1 °F 29.80 in NW 10.4 mph 6.7 mph 84% 0 in 0.00 W/m2
20:34 31.3 °F 27 °F 29.80 in NNW 10.4 mph 7.1 mph 84% 0 in 0.00 W/m2
20:40 31.2 °F 26.9 °F 29.80 in NNW 9.2 mph 5 mph 84% 0 in 0.00 W/m2
20:44 31.2 °F 26.9 °F 29.80 in NNW 12 mph 7.8 mph 84% 0 in 0.00 W/m2
20:49 31.2 °F 26.9 °F 29.80 in NNW 8.1 mph 4.5 mph 84% 0 in 0.00 W/m2
20:54 31.2 °F 27.2 °F 29.80 in NNW 10.4 mph 6 mph 85% 0 in 0.00 W/m2
20:59 31.2 °F 27.2 °F 29.80 in NNW 6 mph 4.9 mph 85% 0 in 0.00 W/m2
21:04 31.2 °F 27.2 °F 29.80 in NW 8.1 mph 4.1 mph 85% 0 in 0.00 W/m2
21:09 31.2 °F 26.9 °F 29.80 in NW 8.1 mph 5.8 mph 84% 0 in 0.00 W/m2
21:14 31.1 °F 26.8 °F 29.80 in NW 5 mph 3.6 mph 84% 0 in 0.00 W/m2
21:19 31.2 °F 26.9 °F 29.80 in WNW 5.8 mph 1.4 mph 84% 0 in 0.00 W/m2
21:24 31.2 °F 27.2 °F 29.80 in NW 5.8 mph 2.6 mph 85% 0 in 0.00 W/m2
21:29 31.2 °F 27.2 °F 29.80 in WNW 4 mph 2.4 mph 85% 0 in 0.00 W/m2
21:34 31.2 °F 27.2 °F 29.81 in NW 4.6 mph 2.4 mph 85% 0 in 0.00 W/m2
21:39 31.1 °F 27.1 °F 29.81 in NW 4.6 mph 4.9 mph 85% 0 in 0.00 W/m2
21:44 31 °F 27 °F 29.81 in NNW 5 mph 2.8 mph 85% 0 in 0.00 W/m2
21:49 31.1 °F 27.1 °F 29.81 in WNW 5.8 mph 3 mph 85% 0 in 0.00 W/m2
21:54 31.1 °F 27.1 °F 29.81 in NW 8.1 mph 3.2 mph 85% 0 in 0.00 W/m2
21:59 31 °F 27 °F 29.82 in NW 6.9 mph 2.6 mph 85% 0 in 0.00 W/m2
22:04 31 °F 27 °F 29.82 in NW 4.6 mph 4.1 mph 85% 0 in 0.00 W/m2
22:09 31 °F 27 °F 29.82 in NNW 5.8 mph 4.4 mph 85% 0 in 0.00 W/m2
22:14 31.1 °F 27.1 °F 29.82 in NW 9 mph 4.5 mph 85% 0 in 0.00 W/m2
22:19 31.1 °F 27.1 °F 29.82 in NW 4.6 mph 4.2 mph 85% 0 in 0.00 W/m2
22:24 31.1 °F 27.4 °F 29.83 in NNW 4.6 mph 2.9 mph 86% 0 in 0.00 W/m2
22:29 31.1 °F 27.1 °F 29.83 in NW 9.2 mph 3.5 mph 85% 0 in 0.00 W/m2
22:34 31.1 °F 27.1 °F 29.83 in WNW 6 mph 3.8 mph 85% 0 in 0.00 W/m2
22:39 31.1 °F 27.4 °F 29.84 in NNW 4.6 mph 1.8 mph 86% 0 in 0.00 W/m2
22:44 31.1 °F 27.4 °F 29.83 in NNW 9.2 mph 3.1 mph 86% 0 in 0.00 W/m2
22:49 31.1 °F 27.4 °F 29.84 in WNW 6.9 mph 4 mph 86% 0 in 0.00 W/m2
22:54 31.1 °F 27.4 °F 29.84 in WNW 2.3 mph 2 mph 86% 0 in 0.00 W/m2
22:59 31.1 °F 27.4 °F 29.84 in WNW 5 mph 5 mph 86% 0 in 0.00 W/m2
23:04 31 °F 27 °F 29.84 in North 10.4 mph 5.5 mph 85% 0 in 0.00 W/m2
23:09 31 °F 27 °F 29.84 in NW 4.6 mph 2.7 mph 85% 0 in 0.00 W/m2
23:14 31 °F 27 °F 29.84 in NW 11.5 mph 3.8 mph 85% 0 in 0.00 W/m2
23:19 30.9 °F 26.9 °F 29.84 in North 9.2 mph 6.4 mph 85% 0 in 0.00 W/m2
23:24 30.8 °F 26.8 °F 29.84 in NW 11.5 mph 4.4 mph 85% 0 in 0.00 W/m2
23:29 30.8 °F 26.8 °F 29.84 in NNW 8.1 mph 4.9 mph 85% 0 in 0.00 W/m2
23:34 30.8 °F 26.8 °F 29.84 in NNW 5.8 mph 4.8 mph 85% 0 in 0.00 W/m2
23:39 30.8 °F 26.8 °F 29.85 in West 9.2 mph 3.8 mph 85% 0 in 0.00 W/m2
23:44 30.8 °F 26.8 °F 29.85 in WNW 5.8 mph 3.3 mph 85% 0 in 0.00 W/m2
23:49 30.8 °F 27.1 °F 29.85 in WNW 4.6 mph 2.6 mph 86% 0 in 0.00 W/m2
23:54 30.8 °F 27.1 °F 29.85 in NW 8.1 mph 5.5 mph 86% 0 in 0.00 W/m2
23:59 30.9 °F 27.2 °F 29.85 in North 7 mph 1.9 mph 86% 0 in 0.00 W/m2
Bourbonnais, Illinois, USA
Compliments of Weather Underground - 4 mb